createdAt,value
2019-02-15T00:00:02.280Z,17.40
2019-02-15T00:00:42.681Z,16.27
2019-02-15T00:01:28.617Z,14.63
2019-02-15T00:02:02.970Z,14.77
2019-02-15T00:02:37.331Z,16.80
2019-02-15T00:03:11.810Z,14.30
2019-02-15T00:03:46.295Z,15.33
2019-02-15T00:04:20.959Z,13.67
2019-02-15T00:04:55.292Z,16.10
2019-02-15T00:05:29.620Z,17.03
2019-02-15T00:06:04.009Z,15.50
2019-02-15T00:06:38.334Z,16.80
2019-02-15T00:07:12.715Z,15.10
2019-02-15T00:07:47.251Z,14.23
2019-02-15T00:08:21.733Z,13.40
2019-02-15T00:08:56.105Z,17.77
2019-02-15T00:09:30.464Z,17.27
2019-02-15T00:10:04.838Z,15.93
2019-02-15T00:10:39.175Z,13.13
2019-02-15T00:11:13.679Z,13.80
2019-02-15T00:11:48.320Z,15.10
2019-02-15T00:12:23.540Z,15.17
2019-02-15T00:12:57.881Z,15.67
2019-02-15T00:13:32.296Z,13.23
2019-02-15T00:14:06.627Z,15.47
2019-02-15T00:14:47.641Z,14.00
2019-02-15T00:15:22.298Z,12.53
2019-02-15T00:15:56.645Z,15.93
2019-02-15T00:16:31.311Z,14.73
2019-02-15T00:17:05.691Z,14.30
2019-02-15T00:18:10.982Z,15.80
2019-02-15T00:19:22.279Z,17.03
2019-02-15T00:19:57.206Z,15.13
2019-02-15T00:20:35.508Z,15.33
2019-02-15T00:21:21.663Z,17.43
2019-02-15T00:21:56.326Z,16.23
2019-02-15T00:22:30.669Z,16.73
2019-02-15T00:23:05.001Z,15.77
2019-02-15T00:23:39.589Z,14.33
2019-02-15T00:24:14.211Z,15.77
2019-02-15T00:24:48.594Z,13.80
2019-02-15T00:25:23.224Z,12.83
2019-02-15T00:25:57.566Z,13.30
2019-02-15T00:26:31.928Z,14.13
2019-02-15T00:27:06.279Z,15.00
2019-02-15T00:27:40.872Z,15.60
2019-02-15T00:28:15.508Z,16.27
2019-02-15T00:28:50.253Z,14.50
2019-02-15T00:29:24.592Z,13.97
2019-02-15T00:29:58.931Z,14.20
2019-02-15T00:30:33.293Z,15.30
2019-02-15T00:31:08.953Z,13.63
2019-02-15T00:31:43.362Z,12.77
2019-02-15T00:32:18.181Z,13.37
2019-02-15T00:32:52.544Z,13.97
2019-02-15T00:33:27.050Z,14.93
2019-02-15T00:34:01.401Z,13.20
2019-02-15T00:34:36.007Z,14.73
2019-02-15T00:35:10.386Z,13.60
2019-02-15T00:35:44.956Z,15.83
2019-02-15T00:36:19.483Z,17.60
2019-02-15T00:36:54.689Z,12.80
2019-02-15T00:37:29.339Z,12.63
2019-02-15T00:38:03.931Z,14.63
2019-02-15T00:38:38.288Z,14.00
2019-02-15T00:39:12.680Z,13.00
2019-02-15T00:39:47.261Z,14.57
2019-02-15T00:40:22.089Z,14.57
2019-02-15T00:40:56.707Z,16.63
2019-02-15T00:41:31.402Z,15.70
2019-02-15T00:42:06.031Z,13.17
2019-02-15T00:42:40.472Z,16.03
2019-02-15T00:43:22.144Z,15.70
2019-02-15T00:43:51.224Z,11.77
2019-02-15T00:44:25.591Z,13.30
2019-02-15T00:44:59.902Z,13.93
2019-02-15T00:45:39.782Z,14.97
2019-02-15T00:46:32.389Z,12.83
2019-02-15T00:47:24.389Z,12.63
2019-02-15T00:48:02.860Z,14.43
2019-02-15T00:48:37.507Z,14.67
2019-02-15T00:49:17.283Z,11.70
2019-02-15T00:50:19.948Z,15.13
2019-02-15T00:51:03.639Z,14.23
2019-02-15T00:51:52.941Z,13.97
2019-02-15T00:52:45.575Z,13.57
2019-02-15T00:53:39.816Z,14.00
2019-02-15T00:54:25.543Z,14.30
2019-02-15T00:55:17.469Z,15.87
2019-02-15T00:56:01.400Z,14.97
2019-02-15T00:56:42.332Z,15.17
2019-02-15T00:57:34.097Z,12.93
2019-02-15T00:58:24.146Z,12.53
2019-02-15T00:59:17.450Z,12.57
2019-02-15T01:00:10.794Z,14.87
2019-02-15T01:01:19.307Z,15.40
2019-02-15T01:02:30.910Z,15.13
2019-02-15T01:03:27.547Z,13.80
2019-02-15T01:04:13.638Z,13.77
2019-02-15T01:05:21.945Z,16.33
2019-02-15T01:06:08.768Z,13.10
2019-02-15T01:06:53.651Z,16.03
2019-02-15T01:08:04.835Z,15.13
2019-02-15T01:08:54.942Z,13.67
2019-02-15T01:09:40.960Z,14.77
2019-02-15T01:10:46.225Z,16.90
2019-02-15T01:11:42.823Z,13.37
2019-02-15T01:12:30.410Z,17.00
2019-02-15T01:13:30.963Z,17.43
2019-02-15T01:13:59.910Z,14.13
2019-02-15T01:14:34.353Z,13.83
2019-02-15T01:15:08.977Z,14.87
2019-02-15T01:15:43.358Z,16.07
2019-02-15T01:16:17.986Z,15.90
2019-02-15T01:16:52.638Z,14.63
2019-02-15T01:17:26.988Z,12.67
2019-02-15T01:18:01.760Z,13.60
2019-02-15T01:18:36.373Z,14.83
2019-02-15T01:19:10.711Z,13.30
2019-02-15T01:19:45.089Z,12.20
2019-02-15T01:20:19.738Z,14.10
2019-02-15T01:20:54.103Z,13.03
2019-02-15T01:21:28.699Z,14.63
2019-02-15T01:22:03.329Z,15.53
2019-02-15T01:22:37.671Z,16.70
2019-02-15T01:23:12.275Z,12.53
2019-02-15T01:23:46.634Z,12.63
2019-02-15T01:24:21.260Z,12.80
2019-02-15T01:24:56.194Z,13.23
2019-02-15T01:25:36.380Z,13.53
2019-02-15T01:26:15.525Z,14.10
2019-02-15T01:27:02.454Z,13.37
2019-02-15T01:27:46.084Z,13.33
2019-02-15T01:28:42.343Z,13.63
2019-02-15T01:29:41.777Z,14.97
2019-02-15T01:30:35.069Z,15.63
2019-02-15T01:31:31.778Z,13.70
2019-02-15T01:32:23.821Z,15.03
2019-02-15T01:33:16.536Z,12.73
2019-02-15T01:34:08.372Z,12.03
2019-02-15T01:34:55.726Z,14.20
2019-02-15T01:35:47.843Z,13.57
2019-02-15T01:36:47.130Z,16.57
2019-02-15T01:37:40.501Z,14.10
2019-02-15T01:38:34.143Z,18.63
2019-02-15T01:39:30.546Z,15.70
2019-02-15T01:40:14.161Z,13.50
2019-02-15T01:41:13.395Z,13.73
2019-02-15T01:41:54.145Z,13.93
2019-02-15T01:43:02.650Z,14.03
2019-02-15T01:43:43.663Z,17.67
2019-02-15T01:44:24.674Z,14.93
2019-02-15T01:45:04.739Z,19.60
2019-02-15T01:45:45.109Z,13.87
2019-02-15T01:46:38.436Z,15.47
2019-02-15T01:47:16.911Z,13.93
2019-02-15T01:47:51.914Z,14.17
2019-02-15T01:48:26.200Z,15.17
2019-02-15T01:49:00.525Z,15.63
2019-02-15T01:49:35.128Z,16.13
2019-02-15T01:50:09.479Z,14.13
2019-02-15T01:50:43.943Z,16.70
2019-02-15T01:51:18.597Z,13.30
2019-02-15T01:51:53.322Z,15.40
2019-02-15T01:52:27.788Z,11.20
2019-02-15T01:53:02.635Z,15.23
2019-02-15T01:53:37.286Z,13.93
2019-02-15T01:54:12.007Z,14.10
2019-02-15T01:54:46.902Z,16.67
2019-02-15T01:55:21.856Z,15.90
2019-02-15T01:55:56.189Z,15.63
2019-02-15T01:56:30.507Z,14.23
2019-02-15T01:57:05.148Z,16.53
2019-02-15T01:57:39.506Z,15.63
2019-02-15T01:58:14.182Z,16.23
2019-02-15T01:58:48.912Z,14.97
2019-02-15T01:59:23.279Z,14.90
2019-02-15T01:59:57.615Z,13.80
2019-02-15T02:00:33.835Z,17.77
2019-02-15T02:01:08.183Z,14.20
2019-02-15T02:01:42.527Z,17.33
2019-02-15T02:02:17.014Z,15.20
2019-02-15T02:02:51.687Z,13.83
2019-02-15T02:03:26.278Z,17.37
2019-02-15T02:04:00.630Z,16.10
2019-02-15T02:04:35.549Z,16.17
2019-02-15T02:05:10.320Z,15.37
2019-02-15T02:05:45.032Z,16.97
2019-02-15T02:06:19.458Z,14.37
2019-02-15T02:06:53.893Z,14.17
2019-02-15T02:07:28.267Z,15.87
2019-02-15T02:08:03.152Z,20.03
2019-02-15T02:08:37.557Z,17.83
2019-02-15T02:09:12.603Z,16.33
2019-02-15T02:09:47.244Z,13.70
2019-02-15T02:10:22.051Z,16.37
2019-02-15T02:10:56.345Z,18.13
2019-02-15T02:11:30.672Z,16.17
2019-02-15T02:12:05.707Z,17.70
2019-02-15T02:12:40.263Z,17.17
2019-02-15T02:13:14.690Z,16.10
2019-02-15T02:13:49.998Z,15.67
2019-02-15T02:14:24.474Z,16.50
2019-02-15T02:14:58.826Z,15.43
2019-02-15T02:15:33.202Z,14.67
2019-02-15T02:16:07.870Z,17.20
2019-02-15T02:16:42.478Z,16.67
2019-02-15T02:17:16.904Z,15.00
2019-02-15T02:17:51.442Z,12.53
2019-02-15T02:18:26.371Z,15.03
2019-02-15T02:19:00.783Z,18.73
2019-02-15T02:19:35.132Z,16.13
2019-02-15T02:20:10.337Z,14.50
2019-02-15T02:20:45.607Z,17.40
2019-02-15T02:21:20.029Z,15.73
2019-02-15T02:21:54.630Z,14.83
2019-02-15T02:22:29.090Z,14.70
2019-02-15T02:23:03.414Z,15.77
2019-02-15T02:23:37.837Z,14.73
2019-02-15T02:24:12.255Z,14.37
2019-02-15T02:24:47.589Z,16.63
2019-02-15T02:25:22.279Z,20.07
2019-02-15T02:25:57.196Z,15.83
2019-02-15T02:26:31.518Z,17.17
2019-02-15T02:27:06.131Z,16.67
2019-02-15T02:27:40.831Z,17.70
2019-02-15T02:28:15.215Z,16.40
2019-02-15T02:28:49.592Z,14.40
2019-02-15T02:29:24.212Z,16.13
2019-02-15T02:29:58.639Z,19.27
2019-02-15T02:30:32.977Z,17.77
2019-02-15T02:31:07.628Z,16.90
2019-02-15T02:31:41.979Z,16.33
2019-02-15T02:32:16.389Z,14.63
2019-02-15T02:32:51.409Z,18.83
2019-02-15T02:33:26.066Z,18.27
2019-02-15T02:34:00.649Z,19.00
2019-02-15T02:34:35.254Z,17.63
2019-02-15T02:35:09.662Z,19.63
2019-02-15T02:35:44.086Z,16.27
2019-02-15T02:36:18.463Z,16.37
2019-02-15T02:36:54.509Z,17.03
2019-02-15T02:37:28.828Z,17.50
2019-02-15T02:38:03.505Z,17.27
2019-02-15T02:38:38.435Z,18.27
2019-02-15T02:39:12.788Z,14.30
2019-02-15T02:39:47.170Z,17.67
2019-02-15T02:40:22.098Z,17.23
2019-02-15T02:40:57.008Z,16.10
2019-02-15T02:41:31.674Z,16.50
2019-02-15T02:42:06.309Z,17.50
2019-02-15T02:42:40.666Z,17.07
2019-02-15T02:43:15.148Z,18.03
2019-02-15T02:43:59.186Z,15.93
2019-02-15T02:44:26.166Z,16.57
2019-02-15T02:45:00.486Z,15.50
2019-02-15T02:45:34.823Z,14.33
2019-02-15T02:46:09.195Z,15.73
2019-02-15T02:46:43.840Z,17.47
2019-02-15T02:47:18.854Z,19.37
2019-02-15T02:47:53.235Z,14.63
2019-02-15T02:48:27.560Z,17.10
2019-02-15T02:49:01.897Z,13.77
2019-02-15T02:49:36.249Z,16.77
2019-02-15T02:50:10.617Z,16.60
2019-02-15T02:50:45.395Z,17.33
2019-02-15T02:51:19.834Z,17.67
2019-02-15T02:51:54.433Z,17.87
2019-02-15T02:52:29.048Z,14.43
2019-02-15T02:53:03.752Z,15.70
2019-02-15T02:53:38.080Z,17.13
2019-02-15T02:54:12.447Z,17.53
2019-02-15T02:54:47.148Z,15.50
2019-02-15T02:55:22.114Z,15.97
2019-02-15T02:55:56.458Z,16.20
2019-02-15T02:56:30.809Z,18.37
2019-02-15T02:57:05.432Z,14.07
2019-02-15T02:57:39.718Z,16.23
2019-02-15T02:58:14.163Z,19.57
2019-02-15T02:58:48.515Z,17.00
2019-02-15T02:59:22.881Z,13.67
2019-02-15T02:59:57.485Z,17.30
2019-02-15T03:00:33.730Z,17.43
2019-02-15T03:01:07.881Z,17.43
2019-02-15T03:01:42.563Z,16.30
2019-02-15T03:02:17.027Z,15.73
2019-02-15T03:02:51.700Z,18.50
2019-02-15T03:03:26.079Z,16.10
2019-02-15T03:04:00.433Z,19.47
2019-02-15T03:04:34.759Z,19.77
2019-02-15T03:05:09.096Z,18.13
2019-02-15T03:05:42.578Z,16.83
2019-02-15T03:06:16.880Z,17.43
2019-02-15T03:06:51.242Z,20.67
2019-02-15T03:07:25.673Z,16.73
2019-02-15T03:08:00.048Z,14.83
2019-02-15T03:08:34.936Z,16.87
2019-02-15T03:09:10.172Z,20.80
2019-02-15T03:09:44.567Z,18.20
2019-02-15T03:10:20.587Z,17.00
2019-02-15T03:10:54.919Z,16.97
2019-02-15T03:11:29.245Z,17.57
2019-02-15T03:12:03.584Z,16.57
2019-02-15T03:12:38.188Z,18.77
2019-02-15T03:13:12.561Z,16.83
2019-02-15T03:13:47.259Z,18.77
2019-02-15T03:14:21.902Z,17.30
2019-02-15T03:14:56.476Z,17.30
2019-02-15T03:15:30.804Z,17.00
2019-02-15T03:16:05.728Z,15.70
2019-02-15T03:16:40.086Z,16.93
2019-02-15T03:17:14.490Z,19.23
2019-02-15T03:17:49.102Z,18.67
2019-02-15T03:18:23.508Z,16.13
2019-02-15T03:18:58.079Z,18.37
2019-02-15T03:19:32.426Z,20.17
2019-02-15T03:20:06.798Z,15.70
2019-02-15T03:20:41.132Z,18.93
2019-02-15T03:21:19.069Z,15.80
2019-02-15T03:21:51.905Z,18.43
2019-02-15T03:22:26.241Z,18.23
2019-02-15T03:23:00.587Z,20.60
2019-02-15T03:23:35.216Z,16.97
2019-02-15T03:24:09.552Z,17.03
2019-02-15T03:24:43.941Z,15.43
2019-02-15T03:25:18.742Z,19.43
2019-02-15T03:25:53.396Z,16.83
2019-02-15T03:26:28.005Z,17.53
2019-02-15T03:27:02.342Z,19.47
2019-02-15T03:27:36.687Z,17.93
2019-02-15T03:28:11.398Z,15.97
2019-02-15T03:28:45.778Z,18.17
2019-02-15T03:29:20.250Z,17.33
2019-02-15T03:29:55.184Z,19.40
2019-02-15T03:30:30.077Z,17.20
2019-02-15T03:31:04.715Z,18.83
2019-02-15T03:31:39.074Z,17.43
2019-02-15T03:32:13.733Z,15.83
2019-02-15T03:32:48.186Z,20.83
2019-02-15T03:33:22.924Z,20.80
2019-02-15T03:33:57.578Z,20.97
2019-02-15T03:34:32.192Z,18.00
2019-02-15T03:35:06.841Z,16.77
2019-02-15T03:35:54.036Z,18.83
2019-02-15T03:36:40.152Z,17.00
2019-02-15T03:37:33.539Z,15.27
2019-02-15T03:38:17.910Z,14.10
2019-02-15T03:38:56.916Z,16.77
2019-02-15T03:39:43.350Z,20.23
2019-02-15T03:40:27.276Z,17.63
2019-02-15T03:41:03.688Z,17.73
2019-02-15T03:41:38.048Z,17.03
2019-02-15T03:42:14.020Z,22.00
2019-02-15T03:42:48.381Z,17.73
2019-02-15T03:43:22.772Z,22.67
2019-02-15T03:43:57.306Z,19.00
2019-02-15T03:44:31.929Z,17.37
2019-02-15T03:45:06.307Z,17.53
2019-02-15T03:45:40.638Z,19.33
2019-02-15T03:46:15.028Z,19.67
2019-02-15T03:46:49.687Z,18.60
2019-02-15T03:47:26.236Z,15.40
2019-02-15T03:48:01.159Z,18.53
2019-02-15T03:48:35.736Z,16.67
2019-02-15T03:49:10.362Z,16.93
2019-02-15T03:49:44.746Z,21.03
2019-02-15T03:50:19.108Z,19.23
2019-02-15T03:50:53.475Z,17.07
2019-02-15T03:51:27.828Z,18.63
2019-02-15T03:52:02.517Z,19.97
2019-02-15T03:52:37.100Z,16.97
2019-02-15T03:53:11.550Z,18.07
2019-02-15T03:53:46.242Z,19.90
2019-02-15T03:54:20.623Z,17.50
2019-02-15T03:54:54.981Z,15.47
2019-02-15T03:55:29.728Z,19.30
2019-02-15T03:56:04.546Z,17.57
2019-02-15T03:56:38.882Z,16.93
2019-02-15T03:57:13.265Z,17.43
2019-02-15T03:57:48.442Z,17.83
2019-02-15T03:58:22.816Z,17.60
2019-02-15T03:58:57.270Z,17.67
2019-02-15T03:59:31.658Z,16.97
2019-02-15T04:00:07.004Z,15.53
2019-02-15T04:00:41.546Z,15.30
2019-02-15T04:01:16.545Z,18.17
2019-02-15T04:01:50.899Z,17.93
2019-02-15T04:02:25.506Z,17.53
2019-02-15T04:03:00.309Z,18.90
2019-02-15T04:03:35.012Z,15.60
2019-02-15T04:04:09.636Z,19.33
2019-02-15T04:04:44.007Z,17.70
2019-02-15T04:05:18.368Z,16.17
2019-02-15T04:05:52.841Z,19.83
2019-02-15T04:06:27.170Z,16.73
2019-02-15T04:07:01.876Z,16.00
2019-02-15T04:07:36.190Z,16.90
2019-02-15T04:08:10.787Z,16.73
2019-02-15T04:08:45.226Z,16.87
2019-02-15T04:09:19.618Z,18.03
2019-02-15T04:09:53.979Z,16.83
2019-02-15T04:10:28.315Z,17.20
2019-02-15T04:11:02.663Z,18.23
2019-02-15T04:11:37.260Z,21.40
2019-02-15T04:12:11.609Z,17.87
2019-02-15T04:12:46.061Z,18.20
2019-02-15T04:13:20.453Z,15.73
2019-02-15T04:13:54.845Z,17.87
2019-02-15T04:14:32.795Z,18.33
2019-02-15T04:15:05.871Z,17.07
2019-02-15T04:15:40.544Z,18.77
2019-02-15T04:16:15.221Z,18.67
2019-02-15T04:16:49.865Z,20.20
2019-02-15T04:17:24.226Z,20.57
2019-02-15T04:17:59.116Z,19.40
2019-02-15T04:18:33.485Z,20.27
2019-02-15T04:19:08.196Z,17.03
2019-02-15T04:19:42.586Z,17.27
2019-02-15T04:20:17.355Z,17.57
2019-02-15T04:20:52.015Z,19.80
2019-02-15T04:21:26.363Z,20.47
2019-02-15T04:22:00.782Z,17.07
2019-02-15T04:22:35.119Z,17.27
2019-02-15T04:23:09.495Z,16.60
2019-02-15T04:23:43.868Z,18.77
2019-02-15T04:24:18.349Z,19.03
2019-02-15T04:24:52.781Z,16.20
2019-02-15T04:25:27.391Z,21.03
2019-02-15T04:26:01.989Z,17.37
2019-02-15T04:26:36.318Z,20.27
2019-02-15T04:27:10.672Z,23.17
2019-02-15T04:27:45.092Z,17.33
2019-02-15T04:28:19.871Z,18.70
2019-02-15T04:28:54.244Z,17.87
2019-02-15T04:29:28.588Z,22.13
2019-02-15T04:30:02.934Z,22.30
2019-02-15T04:30:37.277Z,18.00
2019-02-15T04:31:11.657Z,17.57
2019-02-15T04:31:46.111Z,18.63
2019-02-15T04:32:20.892Z,19.23
2019-02-15T04:32:55.502Z,21.77
2019-02-15T04:33:30.102Z,16.90
2019-02-15T04:34:04.742Z,22.97
2019-02-15T04:34:39.345Z,17.77
2019-02-15T04:35:13.703Z,17.73
2019-02-15T04:35:48.078Z,22.53
2019-02-15T04:36:22.739Z,24.17
2019-02-15T04:36:57.329Z,20.97
2019-02-15T04:37:31.941Z,21.60
2019-02-15T04:38:06.366Z,20.47
2019-02-15T04:38:40.970Z,23.30
2019-02-15T04:39:15.384Z,22.47
2019-02-15T04:39:50.383Z,24.27
2019-02-15T04:40:24.752Z,26.23
2019-02-15T04:40:59.099Z,26.60
2019-02-15T04:41:33.549Z,27.87
2019-02-15T04:42:08.160Z,30.87
2019-02-15T04:42:42.529Z,29.43
2019-02-15T04:43:17.216Z,29.27
2019-02-15T04:43:51.867Z,28.83
2019-02-15T04:44:26.775Z,28.53
2019-02-15T04:45:01.103Z,31.03
2019-02-15T04:45:35.713Z,30.77
2019-02-15T04:46:10.061Z,34.37
2019-02-15T04:46:44.410Z,35.50
2019-02-15T04:47:18.787Z,34.50
2019-02-15T04:47:53.137Z,36.80
2019-02-15T04:48:27.489Z,33.80
2019-02-15T04:49:01.861Z,36.70
2019-02-15T04:49:36.613Z,33.90
2019-02-15T04:50:10.970Z,32.33
2019-02-15T04:50:45.902Z,30.93
2019-02-15T04:51:20.524Z,35.10
2019-02-15T04:51:55.254Z,33.07
2019-02-15T04:52:29.959Z,36.07
2019-02-15T04:53:04.295Z,34.73
2019-02-15T04:53:38.876Z,29.80
2019-02-15T04:54:13.603Z,31.47
2019-02-15T04:54:48.222Z,29.73
2019-02-15T04:55:22.845Z,33.70
2019-02-15T04:55:57.450Z,28.60
2019-02-15T04:56:32.112Z,27.67
2019-02-15T04:57:06.733Z,27.83
2019-02-15T04:57:41.335Z,28.00
2019-02-15T04:58:15.724Z,26.20
2019-02-15T04:58:50.114Z,25.17
2019-02-15T04:59:24.750Z,26.67
2019-02-15T04:59:59.083Z,26.50
2019-02-15T05:00:33.684Z,22.40
2019-02-15T05:01:08.122Z,23.07
2019-02-15T05:01:42.479Z,19.60
2019-02-15T05:02:16.879Z,20.43
2019-02-15T05:02:51.412Z,22.07
2019-02-15T05:03:26.137Z,20.40
2019-02-15T05:04:00.764Z,20.80
2019-02-15T05:04:35.152Z,24.63
2019-02-15T05:05:09.464Z,19.17
2019-02-15T05:05:43.839Z,23.43
2019-02-15T05:06:18.558Z,20.17
2019-02-15T05:06:52.990Z,21.17
2019-02-15T05:07:27.591Z,20.10
2019-02-15T05:08:02.193Z,19.33
2019-02-15T05:08:36.788Z,21.37
2019-02-15T05:09:11.114Z,19.37
2019-02-15T05:09:45.618Z,20.50
2019-02-15T05:10:19.986Z,18.47
2019-02-15T05:10:54.331Z,16.03
2019-02-15T05:11:28.682Z,20.67
2019-02-15T05:12:03.364Z,19.77
2019-02-15T05:12:37.725Z,19.57
2019-02-15T05:13:12.374Z,17.23
2019-02-15T05:13:46.780Z,21.27
2019-02-15T05:14:21.226Z,17.43
2019-02-15T05:14:55.944Z,20.27
2019-02-15T05:15:30.294Z,19.83
2019-02-15T05:16:04.621Z,20.83
2019-02-15T05:16:39.213Z,19.60
2019-02-15T05:17:13.589Z,20.17
2019-02-15T05:17:47.985Z,19.57
2019-02-15T05:18:22.745Z,17.40
2019-02-15T05:18:57.448Z,18.87
2019-02-15T05:19:32.344Z,19.27
2019-02-15T05:20:07.098Z,20.43
2019-02-15T05:20:41.745Z,17.97
2019-02-15T05:21:16.140Z,16.67
2019-02-15T05:21:50.848Z,20.93
2019-02-15T05:22:25.198Z,18.83
2019-02-15T05:22:59.799Z,18.50
2019-02-15T05:23:34.403Z,18.13
2019-02-15T05:24:08.769Z,16.27
2019-02-15T05:24:43.180Z,18.33
2019-02-15T05:25:17.810Z,17.27
2019-02-15T05:25:52.207Z,16.93
2019-02-15T05:26:26.579Z,17.27
2019-02-15T05:27:01.238Z,17.50
2019-02-15T05:27:35.887Z,20.00
2019-02-15T05:28:10.228Z,21.63
2019-02-15T05:28:44.665Z,16.93
2019-02-15T05:29:19.024Z,17.20
2019-02-15T05:29:53.716Z,18.17
2019-02-15T05:30:28.059Z,18.33
2019-02-15T05:31:03.052Z,15.47
2019-02-15T05:31:37.384Z,17.70
2019-02-15T05:32:11.724Z,18.27
2019-02-15T05:32:46.261Z,18.67
2019-02-15T05:33:20.777Z,16.00
2019-02-15T05:33:55.244Z,19.13
2019-02-15T05:34:29.721Z,15.33
2019-02-15T05:35:04.353Z,19.23
2019-02-15T05:35:39.284Z,17.63
2019-02-15T05:36:13.647Z,16.43
2019-02-15T05:36:48.395Z,17.03
2019-02-15T05:37:23.062Z,20.13
2019-02-15T05:37:57.412Z,18.37
2019-02-15T05:38:31.755Z,20.40
2019-02-15T05:39:08.616Z,16.37
2019-02-15T05:39:43.003Z,14.93
2019-02-15T05:40:17.371Z,18.73
2019-02-15T05:40:52.060Z,17.60
2019-02-15T05:41:27.050Z,17.73
2019-02-15T05:42:01.384Z,18.10
2019-02-15T05:42:35.999Z,18.00
2019-02-15T05:43:10.363Z,13.80
2019-02-15T05:43:44.720Z,15.30
2019-02-15T05:44:19.117Z,20.40
2019-02-15T05:45:03.020Z,14.33
2019-02-15T05:45:29.569Z,15.93
2019-02-15T05:46:04.176Z,17.10
2019-02-15T05:46:38.784Z,18.20
2019-02-15T05:47:13.175Z,17.57
2019-02-15T05:47:47.922Z,15.67
2019-02-15T05:48:22.276Z,15.53
2019-02-15T05:48:56.617Z,18.03
2019-02-15T05:49:31.021Z,18.80
2019-02-15T05:50:05.441Z,16.77
2019-02-15T05:50:40.023Z,20.50
2019-02-15T05:51:14.415Z,15.93
2019-02-15T05:51:48.823Z,18.90
2019-02-15T05:52:23.464Z,14.80
2019-02-15T05:52:58.672Z,16.47
2019-02-15T05:53:33.259Z,17.63
2019-02-15T05:54:07.592Z,14.90
2019-02-15T05:54:42.595Z,17.67
2019-02-15T05:55:17.018Z,18.73
2019-02-15T05:55:51.714Z,17.47
2019-02-15T05:56:26.503Z,18.50
2019-02-15T05:57:01.402Z,15.03
2019-02-15T05:57:35.789Z,18.70
2019-02-15T05:58:10.132Z,16.80
2019-02-15T05:58:44.769Z,17.40
2019-02-15T05:59:19.444Z,17.77
2019-02-15T05:59:54.106Z,16.73
2019-02-15T06:00:36.724Z,18.73
2019-02-15T06:01:05.485Z,16.27
2019-02-15T06:01:39.818Z,16.30
2019-02-15T06:02:14.337Z,17.60
2019-02-15T06:02:49.371Z,20.20
2019-02-15T06:03:23.757Z,17.70
2019-02-15T06:03:58.092Z,17.87
2019-02-15T06:04:32.892Z,21.53
2019-02-15T06:05:07.714Z,16.00
2019-02-15T06:05:42.055Z,16.63
2019-02-15T06:06:16.440Z,17.87
2019-02-15T06:06:50.816Z,20.00
2019-02-15T06:07:25.432Z,17.07
2019-02-15T06:08:00.674Z,19.67
2019-02-15T06:08:35.601Z,19.90
2019-02-15T06:09:10.226Z,20.00
2019-02-15T06:09:44.996Z,19.87
2019-02-15T06:10:19.363Z,16.17
2019-02-15T06:10:53.794Z,18.27
2019-02-15T06:11:28.528Z,18.33
2019-02-15T06:12:03.132Z,16.80
2019-02-15T06:12:37.459Z,17.77
2019-02-15T06:13:11.829Z,19.17
2019-02-15T06:13:46.727Z,18.23
2019-02-15T06:14:21.129Z,19.53
2019-02-15T06:14:55.641Z,17.30
2019-02-15T06:15:30.029Z,20.73
2019-02-15T06:16:04.356Z,21.73
2019-02-15T06:16:38.983Z,17.23
2019-02-15T06:17:13.476Z,19.07
2019-02-15T06:17:48.179Z,17.73
2019-02-15T06:18:22.808Z,17.03
2019-02-15T06:18:57.375Z,16.40
2019-02-15T06:19:32.058Z,15.57
2019-02-15T06:20:06.857Z,18.70
2019-02-15T06:20:41.452Z,14.30
2019-02-15T06:21:15.870Z,16.87
2019-02-15T06:21:50.217Z,17.07
2019-02-15T06:22:24.659Z,16.07
2019-02-15T06:22:59.570Z,19.37
2019-02-15T06:23:34.479Z,17.77
2019-02-15T06:24:08.815Z,19.53
2019-02-15T06:24:43.167Z,16.70
2019-02-15T06:25:17.618Z,16.80
2019-02-15T06:25:52.059Z,21.57
2019-02-15T06:26:26.397Z,17.07
2019-02-15T06:27:00.723Z,18.30
2019-02-15T06:27:35.064Z,16.97
2019-02-15T06:28:10.535Z,17.07
2019-02-15T06:28:45.076Z,20.87
2019-02-15T06:29:19.652Z,19.87
2019-02-15T06:29:54.360Z,20.40
2019-02-15T06:30:28.719Z,17.80
2019-02-15T06:31:03.042Z,15.27
2019-02-15T06:31:37.629Z,17.47
2019-02-15T06:32:11.977Z,18.47
2019-02-15T06:32:46.400Z,17.33
2019-02-15T06:33:20.800Z,17.50
2019-02-15T06:33:55.134Z,18.87
2019-02-15T06:34:29.753Z,17.67
2019-02-15T06:35:04.125Z,23.57
2019-02-15T06:35:38.741Z,18.53
2019-02-15T06:36:13.143Z,19.27
2019-02-15T06:36:48.077Z,16.70
2019-02-15T06:37:22.761Z,18.30
2019-02-15T06:37:57.092Z,18.20
2019-02-15T06:38:34.773Z,21.00
2019-02-15T06:39:08.985Z,19.60
2019-02-15T06:39:43.363Z,24.37
2019-02-15T06:40:17.765Z,16.30
2019-02-15T06:40:52.402Z,20.77
2019-02-15T06:41:27.006Z,17.00
2019-02-15T06:42:01.691Z,19.17
2019-02-15T06:42:36.039Z,21.00
2019-02-15T06:43:10.640Z,17.13
2019-02-15T06:43:45.424Z,19.17
2019-02-15T06:44:20.148Z,17.53
2019-02-15T06:44:54.498Z,20.60
2019-02-15T06:45:28.889Z,18.73
2019-02-15T06:46:03.221Z,17.57
2019-02-15T06:46:37.835Z,19.73
2019-02-15T06:47:12.206Z,17.30
2019-02-15T06:47:46.602Z,17.80
2019-02-15T06:48:21.368Z,19.43
2019-02-15T06:48:55.998Z,18.47
2019-02-15T06:49:30.331Z,19.60
2019-02-15T06:50:04.877Z,20.00
2019-02-15T06:50:39.219Z,22.60
2019-02-15T06:51:13.599Z,18.23
2019-02-15T06:51:48.135Z,20.47
2019-02-15T06:52:22.502Z,20.17
2019-02-15T06:52:56.902Z,20.83
2019-02-15T06:53:31.519Z,22.90
2019-02-15T06:54:06.147Z,19.00
2019-02-15T06:54:40.748Z,20.07
2019-02-15T06:55:15.457Z,23.97
2019-02-15T06:55:50.084Z,21.27
2019-02-15T06:56:24.738Z,20.13
2019-02-15T06:56:59.356Z,19.20
2019-02-15T06:57:34.290Z,23.37
2019-02-15T06:58:08.641Z,19.50
2019-02-15T06:59:02.232Z,19.80
2019-02-15T06:59:53.843Z,17.80
2019-02-15T07:00:43.595Z,22.07
2019-02-15T07:01:23.666Z,21.93
2019-02-15T07:02:16.279Z,20.00
2019-02-15T07:03:18.851Z,19.73
2019-02-15T07:04:11.151Z,18.70
2019-02-15T07:05:03.659Z,18.87
2019-02-15T07:05:38.016Z,18.67
2019-02-15T07:06:12.620Z,18.03
2019-02-15T07:06:47.058Z,23.10
2019-02-15T07:07:21.821Z,19.30
2019-02-15T07:07:56.249Z,16.43
2019-02-15T07:08:30.594Z,15.97
2019-02-15T07:09:05.256Z,20.67
2019-02-15T07:09:39.856Z,19.10
2019-02-15T07:10:14.232Z,20.90
2019-02-15T07:10:48.792Z,16.53
2019-02-15T07:11:23.192Z,22.33
2019-02-15T07:11:57.830Z,19.40
2019-02-15T07:12:32.235Z,16.73
2019-02-15T07:13:06.867Z,17.27
2019-02-15T07:13:41.233Z,19.87
2019-02-15T07:14:15.898Z,18.43
2019-02-15T07:14:50.325Z,17.00
2019-02-15T07:15:33.165Z,21.10
2019-02-15T07:16:01.355Z,18.57
2019-02-15T07:16:35.694Z,17.43
2019-02-15T07:17:10.061Z,21.10
2019-02-15T07:17:44.486Z,21.50
2019-02-15T07:18:18.894Z,18.73
2019-02-15T07:18:53.344Z,21.20
2019-02-15T07:19:27.843Z,17.93
2019-02-15T07:20:02.489Z,17.60
2019-02-15T07:20:36.874Z,21.90
2019-02-15T07:21:11.482Z,16.83
2019-02-15T07:21:46.717Z,17.60
2019-02-15T07:22:21.353Z,22.70
2019-02-15T07:22:55.859Z,17.53
2019-02-15T07:23:30.541Z,21.73
2019-02-15T07:24:04.975Z,17.40
2019-02-15T07:24:39.352Z,17.57
2019-02-15T07:25:13.964Z,19.27
2019-02-15T07:25:48.433Z,20.70
2019-02-15T07:26:22.840Z,16.80
2019-02-15T07:26:57.181Z,19.67
2019-02-15T07:27:31.512Z,17.97
2019-02-15T07:28:06.117Z,16.93
2019-02-15T07:28:40.707Z,16.33
2019-02-15T07:29:15.199Z,18.67
2019-02-15T07:29:49.638Z,21.00
2019-02-15T07:30:24.302Z,15.80
2019-02-15T07:30:58.964Z,17.67
2019-02-15T07:31:33.412Z,19.63
2019-02-15T07:32:07.751Z,20.03
2019-02-15T07:32:42.105Z,18.17
2019-02-15T07:33:16.533Z,17.90
2019-02-15T07:33:50.922Z,17.97
2019-02-15T07:34:25.577Z,16.83
2019-02-15T07:34:59.961Z,18.30
2019-02-15T07:35:34.367Z,16.53
2019-02-15T07:36:08.708Z,17.80
2019-02-15T07:36:43.570Z,19.23
2019-02-15T07:37:18.238Z,18.47
2019-02-15T07:37:52.664Z,21.30
2019-02-15T07:38:27.316Z,16.43
2019-02-15T07:39:01.662Z,15.00
2019-02-15T07:39:36.264Z,24.07
2019-02-15T07:40:10.717Z,19.43
2019-02-15T07:40:45.799Z,15.60
2019-02-15T07:41:20.264Z,16.33
2019-02-15T07:41:54.727Z,15.23
2019-02-15T07:42:29.334Z,18.37
2019-02-15T07:43:03.793Z,17.90
2019-02-15T07:43:38.146Z,18.63
2019-02-15T07:44:12.766Z,17.80
2019-02-15T07:44:47.217Z,17.77
2019-02-15T07:45:22.749Z,19.97
2019-02-15T07:45:57.424Z,17.23
2019-02-15T07:46:32.050Z,17.57